Time;durP1;ratioP1;P1;durP2;ratioP2;P2;SDS_P1;SDS_P2;PMS_P1;PMS_P2;Temp;Humidity;BMP_temperature;BMP_pressure;BME280_temperature;BME280_humidity;BME280_pressure;Samples;Min_cycle;Max_cycle;Signal;HPM_P1;HPM_P2
2022/01/18 00:03:52;;;;;;;;;;;0.80;99.90;;;;;;5196706;27;19913;-78
2022/01/18 00:06:19;;;;;;;;;;;0.80;99.90;;;;;;5152020;27;19922;-83
2022/01/18 00:08:46;;;;;;;;;;;0.80;99.90;;;;;;5127627;28;19932;-84
2022/01/18 00:11:13;;;;;;;;;;;0.80;99.90;;;;;;5026230;28;19933;-83
2022/01/18 00:13:42;;;;;;;;;;;0.80;99.90;;;;;;4979200;28;19927;-82
2022/01/18 00:16:23;;;;;;;;;;;0.70;99.90;;;;;;4827951;29;19929;-81
2022/01/18 00:18:51;;;;;;;;;;;0.60;99.90;;;;;;4680833;29;19933;-81
2022/01/18 00:26:26;;;;;;;;;;;0.70;99.90;;;;;;5179126;27;19925;-86
2022/01/18 00:28:57;;;;;;;;;;;0.70;99.90;;;;;;5119864;27;19923;-83
2022/01/18 00:31:39;;;;;;;;;;;0.70;99.90;;;;;;5115749;28;19924;-80
2022/01/18 00:34:10;;;;;;;;;;;0.60;99.90;;;;;;5034788;28;19925;-80
2022/01/18 00:36:41;;;;;;;;;;;0.70;99.90;;;;;;4970738;28;19927;-81
2022/01/18 00:39:09;;;;;;;;;;;0.60;99.90;;;;;;4855815;28;19936;-80
2022/01/18 00:41:36;;;;;;;;;;;0.60;99.90;;;;;;4699176;29;19932;-84
2022/01/18 00:48:36;;;;;;;;;;;0.70;99.90;;;;;;5179243;27;19925;-83
2022/01/18 00:51:04;;;;;;;;;;;0.60;99.90;;;;;;5132306;27;19924;-82
2022/01/18 00:53:32;;;;;;;;;;;0.60;99.90;;;;;;5117602;27;19923;-82
2022/01/18 00:56:10;;;;;;;;;;;0.60;99.90;;;;;;5116375;27;19941;-80
2022/01/18 00:58:37;;;;;;;;;;;0.60;99.90;;;;;;5075331;28;19933;-80
2022/01/18 01:01:04;;;;;;;;;;;0.60;99.90;;;;;;4874866;29;19936;-81
2022/01/18 01:03:30;;;;;;;;;;;0.50;99.90;;;;;;4673496;29;19934;-84
2022/01/18 01:10:59;;;;;;;;;;;0.40;99.90;;;;;;5169598;27;19926;-80
2022/01/18 01:13:27;;;;;;;;;;;0.50;99.90;;;;;;5112468;28;19924;-79
2022/01/18 01:16:05;;;;;;;;;;;0.50;99.90;;;;;;5091036;28;19924;-82
2022/01/18 01:18:42;;;;;;;;;;;0.50;99.90;;;;;;5045755;28;19932;-82
2022/01/18 01:34:44;;;;;;;;;;;0.40;99.90;;;;;;5174431;27;19942;-85
2022/01/18 01:41:45;;;;;;;;;;;0.30;99.90;;;;;;5115985;27;19930;-83
2022/01/18 01:43:09;;;;;;;;;;;0.30;99.90;;;;;;5015212;28;19933;-85
2022/01/18 01:45:36;;;;;;;;;;;0.30;99.90;;;;;;4948983;28;19928;-82
2022/01/18 01:48:03;;;;;;;;;;;0.30;99.90;;;;;;4796935;29;19938;-81
2022/01/18 01:50:42;;;;;;;;;;;0.30;99.90;;;;;;4539037;30;19944;-86
2022/01/18 01:58:14;;;;;;;;;;;0.20;99.90;;;;;;5173876;27;19927;-87
2022/01/18 02:00:43;;;;;;;;;;;0.10;99.90;;;;;;5135051;27;19923;-86
2022/01/18 02:03:09;;;;;;;;;;;0.20;99.90;;;;;;5116362;27;19923;-82
2022/01/18 02:05:36;;;;;;;;;;;0.10;99.90;;;;;;5086302;28;20326;-84
2022/01/18 02:08:06;;;;;;;;;;;0.10;99.90;;;;;;5025534;28;19933;-84
2022/01/18 02:10:34;;;;;;;;;;;0.10;99.90;;;;;;4868501;29;19952;-82
2022/01/18 02:13:01;;;;;;;;;;;0.10;99.90;;;;;;4632610;30;19941;-82
2022/01/18 02:23:19;;;;;;;;;;;0.00;99.90;;;;;;5080023;28;19924;-82
2022/01/18 02:25:45;;;;;;;;;;;0.00;99.90;;;;;;5086118;28;19924;-82
2022/01/18 02:28:12;;;;;;;;;;;0.00;99.90;;;;;;5056765;28;19933;-84
2022/01/18 02:30:39;;;;;;;;;;;0.00;99.90;;;;;;4979500;28;19926;-80
2022/01/18 02:33:06;;;;;;;;;;;0.00;99.90;;;;;;4861881;29;19940;-81
2022/01/18 02:35:34;;;;;;;;;;;0.00;99.90;;;;;;4679995;29;19941;-80
2022/01/18 02:45:48;;;;;;;;;;;0.00;99.90;;;;;;5117294;27;19924;-84
2022/01/18 02:48:14;;;;;;;;;;;0.00;99.90;;;;;;5114829;28;19916;-82
2022/01/18 02:50:41;;;;;;;;;;;0.00;99.90;;;;;;5089359;28;19913;-81
2022/01/18 02:53:08;;;;;;;;;;;0.00;99.90;;;;;;4980877;28;19928;-80
2022/01/18 02:55:34;;;;;;;;;;;0.00;99.90;;;;;;4798531;29;19938;-85
2022/01/18 02:58:04;;;;;;;;;;;0.00;99.90;;;;;;4656243;30;19946;-84
2022/01/18 03:05:37;;;;;;;;;;;0.00;99.90;;;;;;5178962;27;19938;-80
2022/01/18 03:08:04;;;;;;;;;;;0.00;99.90;;;;;;5136804;27;19924;-81
2022/01/18 03:10:31;;;;;;;;;;;0.00;99.90;;;;;;5103344;28;19940;-84
2022/01/18 03:12:57;;;;;;;;;;;-0.10;99.90;;;;;;5056573;28;19924;-83
2022/01/18 03:15:24;;;;;;;;;;;0.00;99.90;;;;;;5025616;28;19927;-83
2022/01/18 03:17:51;;;;;;;;;;;0.10;99.90;;;;;;4854754;29;19934;-84
2022/01/18 03:20:19;;;;;;;;;;;0.00;99.90;;;;;;4659689;30;19933;-87
2022/01/18 03:28:05;;;;;;;;;;;0.00;99.90;;;;;;5185302;27;19926;-83
2022/01/18 03:30:32;;;;;;;;;;;0.00;99.90;;;;;;5126068;27;19931;-80
2022/01/18 03:33:00;;;;;;;;;;;0.10;99.90;;;;;;5124022;27;19924;-80
2022/01/18 03:35:26;;;;;;;;;;;0.00;99.90;;;;;;5131207;27;19931;-80
2022/01/18 03:37:53;;;;;;;;;;;0.00;99.90;;;;;;5099089;28;19924;-83
2022/01/18 03:40:20;;;;;;;;;;;0.10;99.90;;;;;;4947822;28;19928;-84
2022/01/18 03:42:49;;;;;;;;;;;0.10;99.90;;;;;;4696844;29;19934;-84
2022/01/18 03:50:20;;;;;;;;;;;0.00;99.90;;;;;;5174195;27;19925;-84
2022/01/18 03:52:47;;;;;;;;;;;0.10;99.90;;;;;;5100499;27;19930;-82
2022/01/18 03:55:14;;;;;;;;;;;0.00;99.90;;;;;;5118588;27;19931;-85
2022/01/18 03:57:41;;;;;;;;;;;0.10;99.90;;;;;;5122117;28;19930;-82
2022/01/18 04:00:09;;;;;;;;;;;0.00;99.90;;;;;;4996183;28;19927;-80
2022/01/18 04:02:39;;;;;;;;;;;0.00;99.90;;;;;;4769273;29;19932;-81
2022/01/18 04:05:06;;;;;;;;;;;0.00;99.90;;;;;;4499483;30;19937;-85
2022/01/18 04:12:40;;;;;;;;;;;-0.10;99.90;;;;;;5170641;27;19913;-78
2022/01/18 04:15:08;;;;;;;;;;;-0.10;99.90;;;;;;5139301;27;19924;-79
2022/01/18 04:26:00;;;;;;;;;;;-0.10;99.90;;;;;;4697871;30;19939;-84
2022/01/18 04:35:38;;;;;;;;;;;-0.10;99.90;;;;;;5186981;27;19925;-79
2022/01/18 04:38:04;;;;;;;;;;;-0.10;99.90;;;;;;5149756;27;19923;-78
2022/01/18 04:40:33;;;;;;;;;;;-0.10;99.90;;;;;;5145819;27;19931;-81
2022/01/18 04:43:10;;;;;;;;;;;0.00;99.90;;;;;;5112416;28;19924;-85
2022/01/18 04:48:28;;;;;;;;;;;0.10;99.90;;;;;;4819987;29;19930;-87
2022/01/18 04:50:56;;;;;;;;;;;0.20;99.90;;;;;;4543502;30;19937;-88
2022/01/18 04:58:28;;;;;;;;;;;0.40;99.90;;;;;;5172627;27;19926;-83
2022/01/18 05:00:56;;;;;;;;;;;0.40;99.90;;;;;;5098784;27;19923;-84
2022/01/18 05:03:22;;;;;;;;;;;0.40;99.90;;;;;;5114847;28;19924;-82
2022/01/18 05:05:50;;;;;;;;;;;0.50;99.90;;;;;;5033696;28;19930;-86
2022/01/18 05:08:17;;;;;;;;;;;0.50;99.90;;;;;;4996228;28;19932;-83
2022/01/18 05:10:49;;;;;;;;;;;0.60;99.90;;;;;;4839745;29;19936;-82
2022/01/18 05:13:29;;;;;;;;;;;0.60;99.90;;;;;;4585805;30;19939;-80
2022/01/18 05:21:19;;;;;;;;;;;0.70;99.90;;;;;;5162817;27;19926;-82
2022/01/18 05:23:45;;;;;;;;;;;0.70;99.90;;;;;;5088053;28;19931;-84
2022/01/18 05:26:12;;;;;;;;;;;0.70;99.90;;;;;;5093702;27;19923;-82
2022/01/18 05:28:39;;;;;;;;;;;0.70;99.90;;;;;;5090228;28;19924;-86
2022/01/18 05:31:05;;;;;;;;;;;0.70;99.90;;;;;;5000850;28;19935;-82
2022/01/18 05:33:32;;;;;;;;;;;0.70;99.90;;;;;;4835737;29;19931;-84
2022/01/18 05:35:59;;;;;;;;;;;0.80;99.90;;;;;;4623090;30;19942;-81
2022/01/18 05:43:32;;;;;;;;;;;0.80;99.90;;;;;;5176435;27;19926;-83
2022/01/18 05:45:59;;;;;;;;;;;0.80;99.90;;;;;;5130297;27;19934;-85
2022/01/18 05:48:25;;;;;;;;;;;0.80;99.90;;;;;;5136036;27;19938;-82
2022/01/18 05:50:54;;;;;;;;;;;0.80;99.90;;;;;;5127423;27;19924;-84
2022/01/18 05:53:21;;;;;;;;;;;0.70;99.90;;;;;;5088755;28;19926;-81
2022/01/18 05:55:47;;;;;;;;;;;0.70;99.90;;;;;;4950694;28;19929;-81
2022/01/18 05:58:14;;;;;;;;;;;0.70;99.90;;;;;;4701404;29;19933;-83
2022/01/18 06:08:32;;;;;;;;;;;0.70;99.90;;;;;;5099946;27;19931;-85
2022/01/18 06:10:58;;;;;;;;;;;0.70;99.90;;;;;;5100040;28;19932;-82
2022/01/18 06:13:25;;;;;;;;;;;0.70;99.90;;;;;;5055069;28;19934;-85
2022/01/18 06:15:51;;;;;;;;;;;0.70;99.90;;;;;;5002480;28;19933;-83
2022/01/18 06:18:18;;;;;;;;;;;0.70;99.90;;;;;;4880957;28;19940;-84
2022/01/18 06:20:44;;;;;;;;;;;0.60;99.90;;;;;;4684967;29;19936;-80
2022/01/18 06:28:17;;;;;;;;;;;0.50;99.90;;;;;;5155882;27;19929;-82
2022/01/18 06:30:44;;;;;;;;;;;0.40;99.90;;;;;;5115172;27;19923;-82
2022/01/18 06:33:10;;;;;;;;;;;0.40;99.90;;;;;;5053813;28;19952;-85
2022/01/18 06:35:37;;;;;;;;;;;0.40;99.90;;;;;;5059716;28;19924;-82
2022/01/18 06:38:04;;;;;;;;;;;0.40;99.90;;;;;;5037368;28;19926;-79
2022/01/18 06:40:30;;;;;;;;;;;0.40;99.90;;;;;;4876159;29;19936;-80
2022/01/18 06:42:57;;;;;;;;;;;0.40;99.90;;;;;;4751841;29;19932;-79
2022/01/18 06:50:29;;;;;;;;;;;0.40;99.90;;;;;;5166581;27;19933;-83
2022/01/18 06:52:55;;;;;;;;;;;0.40;99.90;;;;;;5099283;28;19923;-84
2022/01/18 06:55:22;;;;;;;;;;;0.50;99.90;;;;;;5081893;28;19931;-81
2022/01/18 06:57:49;;;;;;;;;;;0.50;99.90;;;;;;5098726;27;19923;-85
2022/01/18 07:00:15;;;;;;;;;;;0.50;99.90;;;;;;5100548;28;19926;-82
2022/01/18 07:02:43;;;;;;;;;;;0.50;99.90;;;;;;4926282;29;19928;-83
2022/01/18 07:05:11;;;;;;;;;;;0.50;99.90;;;;;;4682168;29;19935;-81
2022/01/18 07:12:43;;;;;;;;;;;0.80;99.90;;;;;;5154517;27;19925;-83
2022/01/18 07:15:10;;;;;;;;;;;0.80;99.90;;;;;;5117372;27;19923;-81
2022/01/18 07:17:38;;;;;;;;;;;0.80;99.90;;;;;;5118328;27;19942;-82
2022/01/18 07:20:05;;;;;;;;;;;0.80;99.90;;;;;;5108135;28;19923;-82
2022/01/18 07:22:32;;;;;;;;;;;0.90;99.90;;;;;;5026079;28;19927;-84
2022/01/18 07:24:59;;;;;;;;;;;1.00;99.90;;;;;;4801086;29;19930;-83
2022/01/18 07:27:26;;;;;;;;;;;1.10;99.90;;;;;;4678898;30;19932;-84
2022/01/18 07:34:50;;;;;;;;;;;1.40;99.90;;;;;;5174604;27;19926;-85
2022/01/18 07:37:17;;;;;;;;;;;1.70;99.90;;;;;;5144425;27;19946;-85
2022/01/18 07:39:44;;;;;;;;;;;2.00;99.90;;;;;;5140332;27;19923;-81
2022/01/18 07:42:11;;;;;;;;;;;2.30;99.90;;;;;;5113434;28;19999;-80
2022/01/18 07:44:37;;;;;;;;;;;2.50;99.90;;;;;;5009285;28;19935;-81
2022/01/18 07:47:04;;;;;;;;;;;2.90;99.90;;;;;;4905243;29;19928;-82
2022/01/18 07:49:31;;;;;;;;;;;3.30;99.90;;;;;;4810370;29;19942;-80
2022/01/18 07:51:58;;;;;;;;;;;3.60;99.90;;;;;;4480904;30;19938;-85
2022/01/18 07:59:10;;;;;;;;;;;3.60;99.90;;;;;;5173336;27;19926;-85
2022/01/18 08:01:36;;;;;;;;;;;3.20;99.90;;;;;;5137532;27;19923;-84
2022/01/18 08:04:03;;;;;;;;;;;3.00;99.90;;;;;;5136670;27;19931;-82
2022/01/18 08:06:30;;;;;;;;;;;3.10;99.90;;;;;;5112418;28;19931;-83
2022/01/18 08:08:56;;;;;;;;;;;3.10;99.90;;;;;;5018126;28;19927;-82
2022/01/18 08:11:23;;;;;;;;;;;3.10;99.90;;;;;;4791384;29;19931;-80
2022/01/18 08:13:50;;;;;;;;;;;3.10;99.90;;;;;;4658459;30;19933;-82
2022/01/18 08:21:29;;;;;;;;;;;3.30;99.90;;;;;;5165757;27;19926;-82
2022/01/18 08:23:55;;;;;;;;;;;3.30;99.90;;;;;;5127834;27;19907;-80
2022/01/18 08:26:22;;;;;;;;;;;3.40;99.90;;;;;;5138867;27;19927;-82
2022/01/18 08:28:49;;;;;;;;;;;3.40;99.90;;;;;;5100618;28;19931;-79
2022/01/18 08:31:15;;;;;;;;;;;3.50;99.90;;;;;;4982631;28;19926;-83
2022/01/18 08:33:43;;;;;;;;;;;3.50;99.90;;;;;;4820418;29;19936;-82
2022/01/18 08:36:10;;;;;;;;;;;3.60;99.90;;;;;;4622542;29;19942;-83
2022/01/18 08:43:13;;;;;;;;;;;3.70;99.90;;;;;;5186099;27;19925;-80
2022/01/18 08:45:39;;;;;;;;;;;3.90;99.90;;;;;;5148171;27;19933;-82
2022/01/18 08:48:06;;;;;;;;;;;4.00;99.90;;;;;;5137038;27;19938;-81
2022/01/18 08:50:33;;;;;;;;;;;4.00;99.90;;;;;;5106271;28;19924;-83
2022/01/18 08:52:59;;;;;;;;;;;3.90;99.90;;;;;;5050906;28;19933;-82
2022/01/18 08:55:26;;;;;;;;;;;4.10;99.90;;;;;;4870273;29;19940;-82
2022/01/18 08:57:53;;;;;;;;;;;4.20;99.90;;;;;;4635700;29;19936;-82
2022/01/18 09:03:10;;;;;;;;;;;4.30;99.90;;;;;;5174974;27;20023;-86
2022/01/18 09:05:38;;;;;;;;;;;4.30;99.90;;;;;;5137239;27;19923;-82
2022/01/18 09:08:07;;;;;;;;;;;4.30;99.90;;;;;;5123514;27;19924;-82
2022/01/18 09:10:34;;;;;;;;;;;4.40;99.90;;;;;;5120022;28;19924;-85
2022/01/18 09:13:01;;;;;;;;;;;4.40;99.90;;;;;;4989636;28;19928;-81
2022/01/18 09:15:28;;;;;;;;;;;4.40;99.90;;;;;;4826042;29;19930;-83
2022/01/18 09:17:54;;;;;;;;;;;4.50;99.90;;;;;;4661216;30;19940;-85
2022/01/18 09:25:28;;;;;;;;;;;4.80;99.90;;;;;;5175153;27;19926;-86
2022/01/18 09:27:55;;;;;;;;;;;4.90;99.90;;;;;;5118123;27;19938;-86
2022/01/18 09:30:22;;;;;;;;;;;4.80;99.90;;;;;;5093129;28;19928;-81
2022/01/18 09:32:49;;;;;;;;;;;4.80;99.90;;;;;;5039982;28;19925;-80
2022/01/18 09:35:17;;;;;;;;;;;5.00;99.90;;;;;;4959970;28;19927;-84
2022/01/18 09:37:44;;;;;;;;;;;5.30;99.90;;;;;;4834887;29;19942;-81
2022/01/18 09:40:11;;;;;;;;;;;5.60;99.90;;;;;;4629831;30;19941;-85
2022/01/18 09:47:42;;;;;;;;;;;6.80;99.90;;;;;;5182217;27;19934;-80
2022/01/18 09:50:10;;;;;;;;;;;7.00;99.90;;;;;;5158918;27;19923;-82
2022/01/18 09:52:37;;;;;;;;;;;7.40;99.90;;;;;;5140621;27;19914;-79
2022/01/18 09:55:08;;;;;;;;;;;7.10;99.90;;;;;;5097162;28;19933;-81
2022/01/18 09:57:34;;;;;;;;;;;7.70;99.90;;;;;;4998320;28;19934;-83
2022/01/18 10:00:01;;;;;;;;;;;7.90;99.90;;;;;;4845743;29;19931;-82
2022/01/18 10:02:27;;;;;;;;;;;7.90;99.90;;;;;;4611142;30;19941;-81
2022/01/18 10:07:36;;;;;;;;;;;7.30;99.90;;;;;;5182533;27;19925;-81
2022/01/18 10:10:05;;;;;;;;;;;7.00;99.90;;;;;;5129910;27;19931;-82
2022/01/18 10:12:32;;;;;;;;;;;7.20;99.90;;;;;;5108322;28;19932;-81
2022/01/18 10:15:00;;;;;;;;;;;7.10;99.90;;;;;;5052632;28;19928;-85
2022/01/18 10:17:30;;;;;;;;;;;7.00;99.90;;;;;;5041402;28;19926;-85
2022/01/18 10:20:01;;;;;;;;;;;6.70;99.90;;;;;;4882805;28;19938;-86
2022/01/18 10:22:34;;;;;;;;;;;6.40;99.90;;;;;;4593843;30;19935;-84
2022/01/18 10:30:08;;;;;;;;;;;6.00;99.90;;;;;;5174995;27;19926;-83
2022/01/18 10:32:40;;;;;;;;;;;5.90;99.90;;;;;;5100066;28;19924;-81
2022/01/18 10:35:10;;;;;;;;;;;5.90;99.90;;;;;;5033604;28;19925;-82
2022/01/18 10:37:38;;;;;;;;;;;6.00;99.90;;;;;;5003963;28;19926;-81
2022/01/18 10:40:07;;;;;;;;;;;6.00;99.90;;;;;;4878980;29;19929;-82
2022/01/18 10:42:39;;;;;;;;;;;6.10;99.90;;;;;;4788510;29;19979;-81
2022/01/18 10:45:09;;;;;;;;;;;6.10;99.90;;;;;;4492495;30;19939;-81
2022/01/18 10:52:20;;;;;;;;;;;6.20;99.90;;;;;;5159039;27;19926;-85
2022/01/18 10:54:48;;;;;;;;;;;6.60;99.90;;;;;;5096525;27;19924;-84
2022/01/18 10:57:17;;;;;;;;;;;6.90;99.90;;;;;;5092985;28;19931;-80
2022/01/18 10:59:44;;;;;;;;;;;7.30;99.90;;;;;;5047166;28;19925;-81
2022/01/18 11:02:13;;;;;;;;;;;7.90;99.90;;;;;;4953831;28;19943;-82
2022/01/18 11:04:42;;;;;;;;;;;8.20;99.90;;;;;;4796783;29;19931;-81
2022/01/18 11:07:09;;;;;;;;;;;8.80;99.90;;;;;;4590313;30;19935;-81
2022/01/18 11:14:31;;;;;;;;;;;8.30;99.90;;;;;;5193383;27;19990;-79
2022/01/18 11:16:58;;;;;;;;;;;8.00;99.90;;;;;;5139980;27;19923;-85
2022/01/18 11:22:10;;;;;;;;;;;7.20;99.90;;;;;;5049839;28;19925;-82
2022/01/18 11:24:38;;;;;;;;;;;7.10;99.90;;;;;;4998348;28;19935;-81
2022/01/18 11:27:08;;;;;;;;;;;7.10;99.90;;;;;;4833427;29;19929;-83
2022/01/18 11:32:16;;;;;;;;;;;6.70;99.90;;;;;;5159650;27;19926;-83
2022/01/18 11:34:55;;;;;;;;;;;6.70;99.90;;;;;;5115664;27;19930;-85
2022/01/18 11:37:35;;;;;;;;;;;6.80;99.90;;;;;;5097107;28;19924;-83
2022/01/18 11:40:03;;;;;;;;;;;6.80;99.90;;;;;;5080289;28;19924;-85
2022/01/18 11:42:50;;;;;;;;;;;6.80;99.90;;;;;;4979806;28;19935;-81
2022/01/18 11:45:39;;;;;;;;;;;6.70;99.90;;;;;;4813042;29;19945;-82
2022/01/18 11:48:10;;;;;;;;;;;6.60;99.90;;;;;;4438440;31;19950;-82
2022/01/18 11:55:45;;;;;;;;;;;6.30;99.90;;;;;;5175593;27;20004;-81
2022/01/18 11:58:12;;;;;;;;;;;6.30;99.90;;;;;;5120187;27;19930;-82
2022/01/18 12:00:46;;;;;;;;;;;6.20;99.90;;;;;;5102546;28;19924;-86
2022/01/18 12:03:17;;;;;;;;;;;6.20;99.90;;;;;;5023573;28;19926;-82
2022/01/18 12:05:44;;;;;;;;;;;6.10;99.90;;;;;;4931431;29;19952;-83
2022/01/18 12:08:28;;;;;;;;;;;6.10;99.90;;;;;;4747662;29;19932;-83
2022/01/18 12:10:55;;;;;;;;;;;6.20;99.90;;;;;;4470636;30;19940;-84
2022/01/18 12:18:31;;;;;;;;;;;6.50;99.90;;;;;;5173864;27;19930;-84
2022/01/18 12:20:59;;;;;;;;;;;6.80;99.90;;;;;;5134775;27;19924;-81
2022/01/18 12:23:27;;;;;;;;;;;6.80;99.90;;;;;;5117520;27;19923;-82
2022/01/18 12:25:57;;;;;;;;;;;6.90;99.90;;;;;;5094474;28;19946;-83
2022/01/18 12:28:51;;;;;;;;;;;7.00;99.90;;;;;;5007921;28;19933;-81
2022/01/18 12:31:53;;;;;;;;;;;7.10;99.90;;;;;;4819320;29;19938;-81
2022/01/18 12:34:30;;;;;;;;;;;7.10;99.90;;;;;;4458640;31;20030;-82
2022/01/18 12:42:23;;;;;;;;;;;6.90;99.90;;;;;;5172191;27;19925;-81
2022/01/18 12:44:49;;;;;;;;;;;6.70;99.90;;;;;;5098210;28;19931;-82
2022/01/18 12:47:16;;;;;;;;;;;6.70;99.90;;;;;;5111571;28;19990;-80
2022/01/18 12:49:43;;;;;;;;;;;6.70;99.90;;;;;;5091649;28;19931;-81
2022/01/18 12:52:09;;;;;;;;;;;6.70;99.90;;;;;;5010480;28;19927;-82
2022/01/18 12:54:37;;;;;;;;;;;6.50;99.90;;;;;;4813031;29;19930;-84
2022/01/18 12:57:10;;;;;;;;;;;6.50;99.90;;;;;;4598912;30;19935;-82
2022/01/18 13:04:55;;;;;;;;;;;6.60;99.90;;;;;;5195054;27;19926;-84
2022/01/18 13:07:22;;;;;;;;;;;6.70;99.90;;;;;;5136344;27;19938;-82
2022/01/18 13:09:55;;;;;;;;;;;6.70;99.90;;;;;;5111765;27;19924;-83
2022/01/18 13:12:27;;;;;;;;;;;6.60;99.90;;;;;;5092249;28;19924;-80
2022/01/18 13:14:55;;;;;;;;;;;6.60;99.90;;;;;;5059512;28;19925;-81
2022/01/18 13:28:07;;;;;;;;;;;6.50;99.90;;;;;;5174040;27;19926;-82
2022/01/18 13:30:34;;;;;;;;;;;6.50;99.90;;;;;;5138389;27;19923;-83
2022/01/18 13:33:02;;;;;;;;;;;6.50;99.90;;;;;;5113584;27;19939;-82
2022/01/18 13:35:30;;;;;;;;;;;6.50;99.90;;;;;;5060359;28;19929;-83
2022/01/18 13:37:57;;;;;;;;;;;6.50;99.90;;;;;;4968231;28;19935;-82
2022/01/18 13:40:25;;;;;;;;;;;6.40;99.90;;;;;;4787857;29;19932;-84
2022/01/18 13:43:00;;;;;;;;;;;6.20;99.90;;;;;;4430189;31;19938;-83
2022/01/18 13:50:44;;;;;;;;;;;6.20;99.90;;;;;;5176942;27;19926;-83
2022/01/18 13:53:12;;;;;;;;;;;6.10;99.90;;;;;;5099543;27;19938;-83
2022/01/18 13:55:43;;;;;;;;;;;6.00;99.90;;;;;;5116421;27;19924;-85
2022/01/18 13:58:10;;;;;;;;;;;5.90;99.90;;;;;;5094181;28;19924;-81
2022/01/18 14:00:37;;;;;;;;;;;5.90;99.90;;;;;;5035832;28;19932;-82
2022/01/18 14:03:04;;;;;;;;;;;5.90;99.90;;;;;;4826940;29;19930;-80
2022/01/18 14:05:31;;;;;;;;;;;5.80;99.90;;;;;;4593160;30;19936;-81
2022/01/18 14:11:17;;;;;;;;;;;5.80;99.90;;;;;;5172306;27;19926;-82
2022/01/18 14:13:44;;;;;;;;;;;5.80;99.90;;;;;;5112365;27;19947;-83
2022/01/18 14:16:21;;;;;;;;;;;5.80;99.90;;;;;;5077634;28;19924;-84
2022/01/18 14:18:50;;;;;;;;;;;5.80;99.90;;;;;;5055087;28;19925;-81
2022/01/18 14:21:39;;;;;;;;;;;5.70;99.90;;;;;;5007129;28;19926;-84
2022/01/18 14:24:12;;;;;;;;;;;5.70;99.90;;;;;;4724406;29;19940;-85
2022/01/18 14:26:42;;;;;;;;;;;5.70;99.90;;;;;;4581287;30;19937;-83
2022/01/18 14:31:56;;;;;;;;;;;5.70;99.90;;;;;;5162936;27;19927;-89
2022/01/18 14:37:43;;;;;;;;;;;5.60;99.90;;;;;;5020039;28;19925;-87
2022/01/18 14:40:15;;;;;;;;;;;5.60;99.90;;;;;;5023752;28;19932;-88
2022/01/18 14:42:46;;;;;;;;;;;5.60;99.90;;;;;;4918723;28;19928;-88
2022/01/18 14:45:33;;;;;;;;;;;5.60;99.90;;;;;;4718564;29;19924;-88
2022/01/18 14:53:17;;;;;;;;;;;5.50;99.90;;;;;;5189892;27;19930;-87
2022/01/18 14:55:44;;;;;;;;;;;5.50;99.90;;;;;;5139595;27;19931;-83
2022/01/18 14:58:11;;;;;;;;;;;5.50;99.90;;;;;;5145931;27;19930;-82
2022/01/18 15:00:40;;;;;;;;;;;5.50;99.90;;;;;;5117384;28;19924;-83
2022/01/18 15:03:07;;;;;;;;;;;5.50;99.90;;;;;;4976714;28;19928;-83
2022/01/18 15:05:34;;;;;;;;;;;5.50;99.90;;;;;;4789897;29;19932;-83
2022/01/18 15:08:03;;;;;;;;;;;5.50;99.90;;;;;;4483341;31;19944;-85
2022/01/18 15:15:36;;;;;;;;;;;5.50;99.90;;;;;;5175909;27;19942;-85
2022/01/18 15:18:03;;;;;;;;;;;5.50;99.90;;;;;;5122178;27;19931;-82
2022/01/18 15:20:30;;;;;;;;;;;5.50;99.90;;;;;;5102002;28;19939;-85
2022/01/18 15:22:57;;;;;;;;;;;5.40;99.90;;;;;;5038671;28;19925;-84
2022/01/18 15:25:24;;;;;;;;;;;5.50;99.90;;;;;;4997244;28;19928;-82
2022/01/18 15:27:51;;;;;;;;;;;5.50;99.90;;;;;;4763864;29;19933;-81
2022/01/18 15:30:18;;;;;;;;;;;5.50;99.90;;;;;;4433941;31;19963;-82
2022/01/18 15:37:18;;;;;;;;;;;5.40;99.90;;;;;;5136094;27;19927;-82
2022/01/18 15:39:48;;;;;;;;;;;5.40;99.90;;;;;;5083137;28;19931;-84
2022/01/18 15:42:16;;;;;;;;;;;5.40;99.90;;;;;;5075110;28;19925;-82
2022/01/18 15:44:43;;;;;;;;;;;5.40;99.90;;;;;;5034461;28;19932;-83
2022/01/18 15:47:12;;;;;;;;;;;5.40;99.90;;;;;;4908024;28;19929;-84
2022/01/18 15:49:39;;;;;;;;;;;5.40;99.90;;;;;;4689133;30;19941;-84
2022/01/18 15:52:06;;;;;;;;;;;5.40;99.90;;;;;;4376149;31;19940;-85
2022/01/18 15:59:40;;;;;;;;;;;5.50;99.90;;;;;;5174674;27;19926;-85
2022/01/18 16:02:07;;;;;;;;;;;5.50;99.90;;;;;;5133319;28;19923;-82
2022/01/18 16:04:35;;;;;;;;;;;5.50;99.90;;;;;;5102788;28;19931;-83
2022/01/18 16:07:02;;;;;;;;;;;5.40;99.90;;;;;;5039271;28;19932;-85
2022/01/18 16:09:29;;;;;;;;;;;5.50;99.90;;;;;;5040913;28;19937;-85
2022/01/18 16:11:56;;;;;;;;;;;5.40;99.90;;;;;;4870348;29;19929;-82
2022/01/18 16:14:24;;;;;;;;;;;5.40;99.90;;;;;;4625166;30;20025;-84
2022/01/18 16:19:38;;;;;;;;;;;5.40;99.90;;;;;;5174180;27;19926;-84
2022/01/18 16:22:05;;;;;;;;;;;5.40;99.90;;;;;;5120421;28;19924;-84
2022/01/18 16:24:31;;;;;;;;;;;5.40;99.90;;;;;;5107592;27;19932;-82
2022/01/18 16:26:58;;;;;;;;;;;5.40;99.90;;;;;;5053383;28;19925;-84
2022/01/18 16:29:25;;;;;;;;;;;5.40;99.90;;;;;;4931214;28;19928;-84
2022/01/18 16:31:53;;;;;;;;;;;5.40;99.90;;;;;;4767538;29;19931;-88
2022/01/18 16:34:21;;;;;;;;;;;5.40;99.90;;;;;;4545799;30;19935;-82
2022/01/18 16:41:52;;;;;;;;;;;5.50;99.90;;;;;;5164108;27;19926;-83
2022/01/18 16:44:19;;;;;;;;;;;5.50;99.90;;;;;;5150047;27;19923;-82
2022/01/18 16:46:45;;;;;;;;;;;5.50;99.90;;;;;;5131405;27;19931;-80
2022/01/18 16:49:12;;;;;;;;;;;5.50;99.90;;;;;;5078782;28;19925;-81
2022/01/18 16:51:39;;;;;;;;;;;5.40;99.90;;;;;;4962020;28;19938;-82
2022/01/18 16:54:08;;;;;;;;;;;5.40;99.90;;;;;;4726144;29;19932;-80
2022/01/18 16:56:35;;;;;;;;;;;5.40;99.90;;;;;;4441639;31;19939;-82
2022/01/18 17:04:06;;;;;;;;;;;5.40;99.90;;;;;;5181646;27;19929;-82
2022/01/18 17:06:33;;;;;;;;;;;5.40;99.90;;;;;;5137322;27;19930;-85
2022/01/18 17:09:00;;;;;;;;;;;5.40;99.90;;;;;;5137901;27;19923;-83
2022/01/18 17:11:27;;;;;;;;;;;5.50;99.90;;;;;;5105461;28;19931;-84
2022/01/18 17:13:54;;;;;;;;;;;5.40;99.90;;;;;;5029811;28;19933;-85
2022/01/18 17:16:20;;;;;;;;;;;5.50;99.90;;;;;;4914476;28;19927;-82
2022/01/18 17:18:47;;;;;;;;;;;5.40;99.90;;;;;;4657616;29;19935;-82
2022/01/18 17:26:21;;;;;;;;;;;5.50;99.90;;;;;;5182406;27;19926;-82
2022/01/18 17:28:47;;;;;;;;;;;5.50;99.90;;;;;;5141735;27;19931;-82
2022/01/18 17:31:14;;;;;;;;;;;5.60;99.90;;;;;;5134935;27;19924;-81
2022/01/18 17:33:43;;;;;;;;;;;5.50;99.90;;;;;;5096435;28;19935;-83
2022/01/18 17:36:10;;;;;;;;;;;5.50;99.90;;;;;;5023770;28;20004;-86
2022/01/18 17:38:40;;;;;;;;;;;5.50;99.90;;;;;;4852165;29;19929;-85
2022/01/18 17:41:07;;;;;;;;;;;5.50;99.90;;;;;;4604470;30;19936;-84
2022/01/18 17:48:39;;;;;;;;;;;5.50;99.90;;;;;;5176275;27;19942;-85
2022/01/18 17:51:06;;;;;;;;;;;5.60;99.90;;;;;;5134411;27;19924;-85
2022/01/18 17:53:33;;;;;;;;;;;5.60;99.90;;;;;;5118149;27;19934;-84
2022/01/18 17:56:01;;;;;;;;;;;5.60;99.90;;;;;;5099776;28;19925;-84
2022/01/18 17:58:27;;;;;;;;;;;5.50;99.90;;;;;;5066673;28;19932;-84
2022/01/18 18:00:54;;;;;;;;;;;5.50;99.90;;;;;;4889292;28;19930;-84
2022/01/18 18:03:21;;;;;;;;;;;5.50;99.90;;;;;;4591913;30;19936;-85
2022/01/18 18:10:49;;;;;;;;;;;5.50;99.90;;;;;;5174401;27;19926;-83
2022/01/18 18:13:16;;;;;;;;;;;5.50;99.90;;;;;;5136272;27;19924;-80
2022/01/18 18:15:44;;;;;;;;;;;5.50;99.90;;;;;;5139194;27;19931;-83
2022/01/18 18:18:12;;;;;;;;;;;5.60;99.90;;;;;;5104480;28;19928;-82
2022/01/18 18:20:39;;;;;;;;;;;5.60;99.90;;;;;;5013873;28;19927;-82
2022/01/18 18:23:05;;;;;;;;;;;5.50;99.90;;;;;;4843130;29;19938;-84
2022/01/18 18:25:33;;;;;;;;;;;5.60;99.90;;;;;;4616614;30;19953;-84
2022/01/18 18:33:06;;;;;;;;;;;5.50;99.90;;;;;;5174436;27;19926;-81
2022/01/18 18:35:33;;;;;;;;;;;5.50;99.90;;;;;;5135686;27;19923;-82
2022/01/18 18:38:00;;;;;;;;;;;5.50;99.90;;;;;;5128509;28;19943;-85
2022/01/18 18:40:33;;;;;;;;;;;5.60;99.90;;;;;;5064883;28;19924;-82
2022/01/18 18:43:12;;;;;;;;;;;5.60;99.90;;;;;;5004999;28;19935;-85
2022/01/18 18:45:40;;;;;;;;;;;5.60;99.90;;;;;;4818411;29;20010;-84
2022/01/18 18:48:08;;;;;;;;;;;5.70;99.90;;;;;;4581682;30;19937;-82
2022/01/18 18:55:41;;;;;;;;;;;5.70;99.90;;;;;;5174113;27;19918;-84
2022/01/18 18:58:09;;;;;;;;;;;5.70;99.90;;;;;;5115549;28;19924;-81
2022/01/18 19:00:50;;;;;;;;;;;5.60;99.90;;;;;;5089927;28;19924;-86
2022/01/18 19:03:24;;;;;;;;;;;5.60;99.90;;;;;;5059476;28;19925;-84
2022/01/18 19:05:52;;;;;;;;;;;5.70;99.90;;;;;;4974029;28;19927;-84
2022/01/18 19:08:19;;;;;;;;;;;5.70;99.90;;;;;;4815297;29;20540;-83
2022/01/18 19:10:46;;;;;;;;;;;5.70;99.90;;;;;;4550348;30;19942;-85
2022/01/18 19:18:20;;;;;;;;;;;5.70;99.90;;;;;;5173992;27;19926;-85
2022/01/18 19:20:48;;;;;;;;;;;5.70;99.90;;;;;;5130912;27;19928;-82
2022/01/18 19:23:15;;;;;;;;;;;5.80;99.90;;;;;;5123620;27;19923;-82
2022/01/18 19:25:42;;;;;;;;;;;5.80;99.90;;;;;;5116455;28;19924;-82
2022/01/18 19:28:09;;;;;;;;;;;5.80;99.90;;;;;;5018905;28;19931;-84
2022/01/18 19:30:35;;;;;;;;;;;5.80;99.90;;;;;;4903203;29;19929;-85
2022/01/18 19:33:02;;;;;;;;;;;5.80;99.90;;;;;;4655826;29;19945;-85